WetterOnline ( https://www.wetteronline.de )

Wetter aktuell Grevesmühlen

Aktuelles Wetter: Boltenhagen (17m)

6-stündlich | Neueste Meldungen
Ortszeit Temperatur Wetter
Fr, 01.07. 2:00 19.7° C leicht bewölkt
Do, 30.06. 20:00 20.8° C wolkenlos
Do, 30.06. 14:00 21.3° C leicht bewölkt
Do, 30.06. 8:00 18.5° C wolkig
Do, 30.06. 2:00 18.2° C wolkenlos
Mi, 29.06. 20:00 20.8° C fast wolkenlos
Mi, 29.06. 14:00 22.8° C bedeckt
Mi, 29.06. 8:00 18.3° C wolkig
Ortszeit Temperatur Wetter
Fr, 01.07. 5:30 19.6° C wolkenlos
Fr, 01.07. 5:20 19.6° C wolkenlos
Fr, 01.07. 5:10 19.6° C leicht bewölkt
Fr, 01.07. 5:00 19.1° C bewölkt
Fr, 01.07. 4:50 19.1° C bewölkt
Fr, 01.07. 4:40 18.9° C bewölkt
Fr, 01.07. 4:30 18.8° C bewölkt
Fr, 01.07. 4:00 18.8° C wolkig
Fr, 01.07. 3:30 19.5° C wolkig
Fr, 01.07. 3:00 19.6° C wolkig
Fr, 01.07. 2:30 19.7° C wolkig
Ortszeit Relative Feuchte Sichtweite
Fr, 01.07. 2:00 91% 28 km
Do, 30.06. 20:00 86% 35 km
Do, 30.06. 14:00 74% 55 km
Do, 30.06. 8:00 80% 40 km
Do, 30.06. 2:00 83% 50 km
Mi, 29.06. 20:00 75% 35 km
Mi, 29.06. 14:00 59% 50 km
Mi, 29.06. 8:00 70% 60 km
Ortszeit Relative Feuchte Sichtweite
Fr, 01.07. 5:30 92% 23 km
Fr, 01.07. 5:20 92% -
Fr, 01.07. 5:10 91% -
Fr, 01.07. 5:00 92% 21 km
Fr, 01.07. 4:50 92% -
Fr, 01.07. 4:40 93% -
Fr, 01.07. 4:30 93% 20 km
Fr, 01.07. 4:00 92% 16 km
Fr, 01.07. 3:30 92% 21 km
Fr, 01.07. 3:00 91% 24 km
Fr, 01.07. 2:30 91% 23 km
Ortszeit Niederschlagsmenge Niederschlagsart
Fr, 01.07. 2:00 0.0 l/m2 in 6 Std. -
Do, 30.06. 20:00 0.0 l/m2 in 12 Std. -
Do, 30.06. 14:00 0.0 l/m2 in 6 Std. -
Do, 30.06. 8:00 0.0 l/m2 in 12 Std. -
Do, 30.06. 2:00 0.0 l/m2 in 6 Std. -
Mi, 29.06. 20:00 0.0 l/m2 in 12 Std. -
Mi, 29.06. 14:00 0.0 l/m2 in 6 Std. -
Mi, 29.06. 8:00 0.0 l/m2 in 12 Std. -
Ortszeit Niederschlagsmenge Niederschlagsart
Fr, 01.07. 5:30 0.0 l/m2 in 1 Std. -
Fr, 01.07. 5:20 keine Meldung -
Fr, 01.07. 5:10 keine Meldung -
Fr, 01.07. 5:00 0.0 l/m2 in 1 Std. -
Fr, 01.07. 4:50 keine Meldung -
Fr, 01.07. 4:40 keine Meldung -
Fr, 01.07. 4:30 0.0 l/m2 in 1 Std. -
Fr, 01.07. 4:00 0.0 l/m2 in 1 Std. -
Fr, 01.07. 3:30 0.0 l/m2 in 1 Std. -
Fr, 01.07. 3:00 0.0 l/m2 in 1 Std. -
Fr, 01.07. 2:30 0.0 l/m2 in 1 Std. -
Ortszeit Stärke Spitze Richtung
km/h Bft. km/h Grad Sektor
Fr, 01.07. 2:00 14 3 40 110° O
Do, 30.06. 20:00 36 5 43 50° NO
Do, 30.06. 14:00 31 5 35 40° NO
Do, 30.06. 8:00 18 3 25 90° O
Do, 30.06. 2:00 13 3 35 100° O
Mi, 29.06. 20:00 28 4 43 60° NO
Mi, 29.06. 14:00 14 3 29 80° O
Mi, 29.06. 8:00 17 3 30 130° SO
Ortszeit Stärke Spitze Richtung
km/h Bft. km/h Grad Sektor
Fr, 01.07. 5:30 9 2 17 100° O
Fr, 01.07. 5:20 9 2 - 100° O
Fr, 01.07. 5:10 11 2 - 90° O
Fr, 01.07. 5:00 7 2 25 50° NO
Fr, 01.07. 4:50 7 2 - 50° NO
Fr, 01.07. 4:40 2 1 - 330° NW
Fr, 01.07. 4:30 9 2 24 260° W
Fr, 01.07. 4:00 14 3 32 220° SW
Fr, 01.07. 3:30 14 3 29 120° SO
Fr, 01.07. 3:00 17 3 24 110° O
Fr, 01.07. 2:30 14 3 25 110° O
Ortszeit Untergrenze Bedeckung Gattung
total tief tief mittel hoch
Fr, 01.07. 2:00 10500 m 4/8 0/8 - - -
Do, 30.06. 20:00 - 0/8 0/8 - - -
Do, 30.06. 14:00 8400 m 5/8 0/8 - - -
Do, 30.06. 8:00 3900 m 7/8 7/8 - - -
Do, 30.06. 2:00 - 0/8 0/8 - - -
Mi, 29.06. 20:00 6000 m 1/8 1/8 - - -
Mi, 29.06. 14:00 5700 m 8/8 8/8 - - -
Mi, 29.06. 8:00 7500 m 8/8 0/8 - - -
Ortszeit Bedeckungsgrad in Achtel und Wolkenuntergrenze
Fr, 01.07. 5:30 keine Wolken
Fr, 01.07. 5:20 keine Wolken
Fr, 01.07. 5:10 2
Fr, 01.07. 5:00 1(420m) 7(1440m) 7(1500m)
Fr, 01.07. 4:50 1(420m) 7(1440m) 7(1500m)
Fr, 01.07. 4:40 7
Fr, 01.07. 4:30 6(300m) 7(3300m)
Fr, 01.07. 4:00 1(210m) 7(9000m) 7(9000m)
Fr, 01.07. 3:30 2(3300m) 8(9000m) 8(10500m)
Fr, 01.07. 3:00 6(9000m) 8(9000m) 8(10500m)
Fr, 01.07. 2:30 1(9000m) 7(10500m)
Ortszeit Luftdruck NN (hPa) Tendenz (hPa in 3 Std.)
Fr, 01.07. 2:00 1011 - 0,3
Do, 30.06. 20:00 1011 - 1,4
Do, 30.06. 14:00 1013 - 0,9
Do, 30.06. 8:00 1015 - 0,5
Do, 30.06. 2:00 1016 - 0,7
Mi, 29.06. 20:00 1016 - 1,2
Mi, 29.06. 14:00 1018 - 0,9
Mi, 29.06. 8:00 1019 - 0,2
Ortszeit Luftdruck NN (hPa) Tendenz (hPa in 3 Std.)
Fr, 01.07. 5:30 1011 - 0,2
Fr, 01.07. 5:20 1011 keine Meldung
Fr, 01.07. 5:10 1011 keine Meldung
Fr, 01.07. 5:00 1011 - 0,1
Fr, 01.07. 4:50 1011 keine Meldung
Fr, 01.07. 4:40 1012 keine Meldung
Fr, 01.07. 4:30 1012 + 0,3
Fr, 01.07. 4:00 1012 + 0,3
Fr, 01.07. 3:30 1011 - 0,3
Fr, 01.07. 3:00 1011 - 0,5
Fr, 01.07. 2:30 1011 - 0,2
Ortszeit Schneehöhe (cm)
Fr, 01.07. 2:00 0
Do, 30.06. 20:00 0
Do, 30.06. 14:00 0
Do, 30.06. 8:00 0
Do, 30.06. 2:00 0
Mi, 29.06. 20:00 0
Mi, 29.06. 14:00 0
Mi, 29.06. 8:00 0
Ortszeit Schneehöhe (cm)
Fr, 01.07. 5:30 0
Fr, 01.07. 5:20 0
Fr, 01.07. 5:10 0
Fr, 01.07. 5:00 0
Fr, 01.07. 4:50 0
Fr, 01.07. 4:40 0
Fr, 01.07. 4:30 0
Fr, 01.07. 4:00 0
Fr, 01.07. 3:30 0
Fr, 01.07. 3:00 0
Fr, 01.07. 2:30 0
Link zu dieser Seite / Seite empfehlen

Das Wetter in ...